createdAt,value
2023-04-06T00:01:26.582Z,100112.50
2023-04-06T00:03:56.035Z,100099.03
2023-04-06T00:06:25.500Z,100095.50
2023-04-06T00:08:57.722Z,100093.63
2023-04-06T00:11:27.189Z,100093.63
2023-04-06T00:13:56.608Z,100087.41
2023-04-06T00:16:25.296Z,100090.94
2023-04-06T00:18:54.860Z,100085.53
2023-04-06T00:21:24.239Z,100085.34
2023-04-06T00:23:53.949Z,100092.81
2023-04-06T00:26:23.623Z,100089.50
2023-04-06T00:28:55.011Z,100084.72
2023-04-06T00:31:26.048Z,100086.78
2023-04-06T00:33:55.473Z,100083.28
2023-04-06T00:36:24.663Z,100072.50
2023-04-06T00:38:54.160Z,100077.88
2023-04-06T00:41:23.371Z,100079.53
2023-04-06T00:43:52.599Z,100075.19
2023-04-06T00:46:22.070Z,100075.19
2023-04-06T00:48:51.538Z,100072.50
2023-04-06T00:51:20.768Z,100074.56
2023-04-06T00:53:50.177Z,100073.56
2023-04-06T00:56:19.443Z,100070.84
2023-04-06T00:58:48.663Z,100069.19
2023-04-06T01:01:18.148Z,100073.56
2023-04-06T01:03:50.415Z,100072.50
2023-04-06T01:06:24.406Z,100074.13
2023-04-06T01:08:56.631Z,100067.72
2023-04-06T01:11:24.791Z,100065.84
2023-04-06T01:13:54.226Z,100063.16
2023-04-06T01:16:25.673Z,100066.66
2023-04-06T01:18:57.811Z,100070.41
2023-04-06T01:21:30.725Z,100066.47
2023-04-06T01:24:04.932Z,100066.47
2023-04-06T01:26:34.581Z,100058.38
2023-04-06T01:29:02.772Z,100050.50
2023-04-06T01:31:34.804Z,100043.47
2023-04-06T01:34:04.021Z,100046.16
2023-04-06T01:36:33.578Z,100050.50
2023-04-06T01:39:04.601Z,100047.19
2023-04-06T01:41:35.255Z,100038.91
2023-04-06T01:44:04.981Z,100042.66
2023-04-06T01:46:33.137Z,100031.00
2023-04-06T01:49:01.424Z,100039.09
2023-04-06T01:51:33.737Z,100028.31
2023-04-06T01:54:04.512Z,100040.16
2023-04-06T01:56:33.719Z,100031.00
2023-04-06T01:59:03.371Z,100035.59
2023-04-06T02:01:33.164Z,100025.63
2023-04-06T02:04:02.562Z,100023.16
2023-04-06T02:06:33.033Z,100023.97
2023-04-06T02:09:04.226Z,100022.94
2023-04-06T02:11:33.568Z,100015.69
2023-04-06T02:14:03.151Z,100012.75
2023-04-06T02:16:32.501Z,100020.66
2023-04-06T02:19:04.544Z,100015.00
2023-04-06T02:21:32.675Z,100017.72
2023-04-06T02:24:01.968Z,100013.16
2023-04-06T02:26:32.566Z,100014.00
2023-04-06T02:29:03.053Z,100019.38
2023-04-06T02:31:32.560Z,100011.28
2023-04-06T02:34:00.767Z,100015.63
2023-04-06T02:36:29.952Z,100025.59
2023-04-06T02:39:00.849Z,100015.63
2023-04-06T02:41:29.123Z,100017.72
2023-04-06T02:43:59.738Z,100015.00
2023-04-06T02:46:28.130Z,100022.28
2023-04-06T02:48:57.622Z,100018.56
2023-04-06T02:51:27.114Z,100017.72
2023-04-06T02:53:58.526Z,100017.72
2023-04-06T02:56:27.831Z,100008.59
2023-04-06T02:58:57.583Z,100019.38
2023-04-06T03:01:31.627Z,100018.56
2023-04-06T03:04:00.751Z,100023.09
2023-04-06T03:06:30.221Z,100015.00
2023-04-06T03:08:58.849Z,100018.56
2023-04-06T03:11:31.326Z,100023.94
2023-04-06T03:14:00.264Z,100017.72
2023-04-06T03:16:36.186Z,100022.28
2023-04-06T03:19:08.012Z,100021.03
2023-04-06T03:21:42.165Z,100026.41
2023-04-06T03:24:12.663Z,100015.63
2023-04-06T03:26:46.180Z,100022.69
2023-04-06T03:29:16.217Z,100024.34
2023-04-06T03:31:50.606Z,100013.56
2023-04-06T03:34:21.038Z,100024.34
2023-04-06T03:36:59.778Z,100017.88
2023-04-06T03:39:31.137Z,100015.19
2023-04-06T03:42:00.829Z,100016.84
2023-04-06T03:44:30.634Z,100025.78
2023-04-06T03:47:01.405Z,100012.50
2023-04-06T03:49:31.714Z,100026.81
2023-04-06T03:52:01.386Z,100018.94
2023-04-06T03:54:31.003Z,100024.34
2023-04-06T03:57:01.260Z,100021.63
2023-04-06T03:59:31.007Z,100024.34
2023-04-06T04:02:01.816Z,100021.63
2023-04-06T04:04:30.006Z,100028.09
2023-04-06T04:06:59.211Z,100022.47
2023-04-06T04:09:29.793Z,100019.75
2023-04-06T04:11:59.025Z,100020.81
2023-04-06T04:14:30.952Z,100021.63
2023-04-06T04:17:01.972Z,100018.31
2023-04-06T04:19:31.023Z,100021.84
2023-04-06T04:21:59.067Z,100022.69
2023-04-06T04:24:27.172Z,100026.22
2023-04-06T04:26:57.115Z,100023.72
2023-04-06T04:29:26.467Z,100035.13
2023-04-06T04:31:56.257Z,100023.28
2023-04-06T04:34:27.131Z,100027.03
2023-04-06T04:36:56.634Z,100031.16
2023-04-06T04:39:25.767Z,100023.91
2023-04-06T04:41:55.024Z,100025.78
2023-04-06T04:44:24.514Z,100028.47
2023-04-06T04:46:54.186Z,100030.09
2023-04-06T04:49:23.652Z,100024.72
2023-04-06T04:51:54.423Z,100028.25
2023-04-06T04:54:23.968Z,100026.59
2023-04-06T04:56:52.678Z,100018.50
2023-04-06T04:59:22.202Z,100025.56
2023-04-06T05:01:54.829Z,100024.72
2023-04-06T05:04:24.764Z,100028.47
2023-04-06T05:07:04.113Z,100023.06
2023-04-06T05:09:32.397Z,100031.97
2023-04-06T05:12:00.731Z,100028.25
2023-04-06T05:14:28.863Z,100025.56
2023-04-06T05:16:56.982Z,100023.06
2023-04-06T05:19:25.052Z,100025.56
2023-04-06T05:22:01.530Z,100024.72
2023-04-06T05:24:31.351Z,100024.72
2023-04-06T05:27:01.300Z,100023.06
2023-04-06T05:29:31.214Z,100016.84
2023-04-06T05:32:00.939Z,100017.69
2023-04-06T05:34:30.633Z,100018.50
2023-04-06T05:37:02.658Z,100009.38
2023-04-06T05:39:32.031Z,100012.69
2023-04-06T05:42:03.926Z,100013.53
2023-04-06T05:44:33.396Z,100003.59
2023-04-06T05:47:02.968Z,100008.97
2023-04-06T05:49:31.169Z,100005.22
2023-04-06T05:52:01.958Z,100005.22
2023-04-06T05:54:30.007Z,99999.84
2023-04-06T05:57:00.426Z,99994.44
2023-04-06T05:59:32.676Z,99996.31
2023-04-06T06:02:02.620Z,99999.84
2023-04-06T06:04:35.116Z,100002.53
2023-04-06T06:07:06.623Z,99998.19
2023-04-06T06:09:36.030Z,99992.81
2023-04-06T06:12:04.057Z,99984.47
2023-04-06T06:14:32.323Z,99992.56
2023-04-06T06:17:00.404Z,99986.97
2023-04-06T06:19:28.449Z,99988.59
2023-04-06T06:21:56.527Z,99986.72
2023-04-06T06:24:26.651Z,99991.91
2023-04-06T06:26:54.696Z,99990.84
2023-04-06T06:29:22.954Z,99988.16
2023-04-06T06:31:51.055Z,99993.16
2023-04-06T06:34:19.178Z,99992.09
2023-04-06T06:36:48.982Z,99991.88
2023-04-06T06:39:18.100Z,99984.38
2023-04-06T06:41:47.623Z,99991.63
2023-04-06T06:44:15.693Z,99983.09
2023-04-06T06:46:43.757Z,99990.75
2023-04-06T06:49:13.321Z,99989.72
2023-04-06T06:51:41.441Z,99987.03
2023-04-06T06:54:09.922Z,99993.03
2023-04-06T06:56:39.098Z,99990.09
2023-04-06T06:59:08.566Z,99987.19
2023-04-06T07:01:36.845Z,99994.22
2023-04-06T07:04:05.047Z,99997.53
2023-04-06T07:06:33.166Z,99992.13
2023-04-06T07:09:01.380Z,100001.66
2023-04-06T07:11:29.514Z,99997.91
2023-04-06T07:13:57.817Z,99998.72
2023-04-06T07:16:27.387Z,100001.44
2023-04-06T07:18:55.478Z,100000.59
2023-04-06T07:21:23.490Z,100002.28
2023-04-06T07:23:51.940Z,99998.72
2023-04-06T07:26:20.121Z,100003.09
2023-04-06T07:28:48.259Z,100002.03
2023-04-06T07:31:16.427Z,100003.72
2023-04-06T07:33:46.419Z,99996.19
2023-04-06T07:36:14.620Z,99997.25
2023-04-06T07:38:42.704Z,100002.19
2023-04-06T07:41:10.848Z,99998.47
2023-04-06T07:43:39.371Z,100002.81
2023-04-06T07:46:07.576Z,100000.72
2023-04-06T07:48:35.780Z,100001.31
2023-04-06T07:51:06.017Z,100001.09
2023-04-06T07:53:34.160Z,99998.41
2023-04-06T07:56:02.311Z,100003.59
2023-04-06T07:58:30.502Z,99992.78
2023-04-06T08:00:58.983Z,99995.50
2023-04-06T08:03:27.500Z,99996.31
2023-04-06T08:05:56.335Z,99994.22
2023-04-06T08:08:25.835Z,99992.34
2023-04-06T08:10:53.948Z,99993.16
2023-04-06T08:13:22.127Z,99993.53
2023-04-06T08:15:50.380Z,99993.25
2023-04-06T08:18:18.475Z,99996.50
2023-04-06T08:20:46.641Z,100001.38
2023-04-06T08:23:14.925Z,99991.66
2023-04-06T08:25:44.517Z,99980.84
2023-04-06T08:28:12.640Z,99983.56
2023-04-06T08:30:42.191Z,99977.09
2023-04-06T08:33:10.542Z,99977.09
2023-04-06T08:35:38.740Z,99975.00
2023-04-06T08:38:07.240Z,99979.56
2023-04-06T08:40:38.797Z,99982.06
2023-04-06T08:43:09.848Z,99983.69
2023-04-06T08:45:37.900Z,99985.94
2023-04-06T08:48:07.868Z,99986.19
2023-04-06T08:50:36.491Z,99983.25
2023-04-06T08:53:04.651Z,99987.00
2023-04-06T08:55:32.837Z,99979.94
2023-04-06T08:58:00.929Z,99984.88
2023-04-06T09:00:30.844Z,99983.69
2023-04-06T09:02:58.962Z,99976.66
2023-04-06T09:05:27.388Z,99978.75
2023-04-06T09:07:55.556Z,99974.63
2023-04-06T09:10:24.429Z,99979.22
2023-04-06T09:12:52.739Z,99973.81
2023-04-06T09:15:24.128Z,99981.31
2023-04-06T09:17:55.722Z,99976.94
2023-04-06T09:20:26.867Z,99968.84
2023-04-06T09:22:55.209Z,99978.00
2023-04-06T09:25:24.009Z,99980.69
2023-04-06T09:28:01.197Z,99962.63
2023-04-06T09:30:29.452Z,99968.25
2023-04-06T09:33:00.528Z,99974.47
2023-04-06T09:35:31.068Z,99975.50
2023-04-06T09:37:59.843Z,99974.69
2023-04-06T09:40:30.262Z,99964.72
2023-04-06T09:43:00.332Z,99967.19
2023-04-06T09:45:28.558Z,99965.56
2023-04-06T09:47:58.259Z,99962.41
2023-04-06T09:50:26.865Z,99965.09
2023-04-06T09:52:55.882Z,99965.09
2023-04-06T09:55:26.603Z,99958.03
2023-04-06T09:57:57.892Z,99965.09
2023-04-06T10:00:25.978Z,99958.88
2023-04-06T10:03:00.578Z,99961.34
2023-04-06T10:05:30.855Z,99960.31
2023-04-06T10:08:01.848Z,99955.28
2023-04-06T10:10:30.121Z,99958.78
2023-04-06T10:12:58.234Z,99955.06
2023-04-06T10:15:26.729Z,99946.97
2023-04-06T10:17:55.113Z,99955.88
2023-04-06T10:20:26.322Z,99945.69
2023-04-06T10:22:57.959Z,99948.38
2023-04-06T10:25:30.042Z,99945.44
2023-04-06T10:28:04.090Z,99942.53
2023-04-06T10:30:32.250Z,99937.13
2023-04-06T10:33:00.389Z,99944.19
2023-04-06T10:35:40.484Z,99939.59
2023-04-06T10:38:08.741Z,99942.91
2023-04-06T10:40:38.270Z,99932.69
2023-04-06T10:43:10.253Z,99931.63
2023-04-06T10:45:38.722Z,99929.53
2023-04-06T10:48:16.669Z,99927.66
2023-04-06T10:50:46.537Z,99922.88
2023-04-06T10:53:22.259Z,99918.28
2023-04-06T10:55:50.322Z,99916.19
2023-04-06T10:58:18.387Z,99924.28
2023-04-06T11:00:50.811Z,99914.66
2023-04-06T11:03:19.655Z,99911.75
2023-04-06T11:05:49.437Z,99912.56
2023-04-06T11:08:28.130Z,99906.94
2023-04-06T11:11:06.643Z,99908.38
2023-04-06T11:13:42.745Z,99913.53
2023-04-06T11:16:15.581Z,99901.44
2023-04-06T11:18:53.993Z,99899.34
2023-04-06T11:21:34.243Z,99894.53
2023-04-06T11:24:12.353Z,99895.13
2023-04-06T11:26:41.693Z,99902.19
2023-04-06T11:29:09.772Z,99905.47
2023-04-06T11:31:42.440Z,99898.41
2023-04-06T11:34:14.547Z,99901.09
2023-04-06T11:36:44.788Z,99891.72
2023-04-06T11:39:12.880Z,99901.25
2023-04-06T11:41:42.088Z,99894.56
2023-04-06T11:44:10.122Z,99887.88
2023-04-06T11:46:38.271Z,99887.19
2023-04-06T11:49:06.605Z,99884.25
2023-04-06T11:51:38.070Z,99889.41
2023-04-06T11:54:07.582Z,99884.84
2023-04-06T11:56:36.201Z,99879.84
2023-04-06T11:59:04.239Z,99865.59
2023-04-06T12:01:36.976Z,99874.91
2023-04-06T12:04:07.653Z,99866.81
2023-04-06T12:06:36.297Z,99869.50
2023-04-06T12:09:04.360Z,99871.63
2023-04-06T12:11:34.094Z,99867.50
2023-04-06T12:14:02.843Z,99853.38
2023-04-06T12:16:31.123Z,99869.03
2023-04-06T12:18:59.292Z,99860.28
2023-04-06T12:21:27.448Z,99862.66
2023-04-06T12:23:55.650Z,99866.63
2023-04-06T12:26:23.876Z,99862.50
2023-04-06T12:28:53.342Z,99866.25
2023-04-06T12:31:22.528Z,99852.75
2023-04-06T12:33:50.948Z,99857.13
2023-04-06T12:36:21.215Z,99860.03
2023-04-06T12:38:49.351Z,99854.63
2023-04-06T12:41:17.580Z,99856.25
2023-04-06T12:43:45.781Z,99849.69
2023-04-06T12:46:15.709Z,99849.34
2023-04-06T12:48:43.923Z,99845.22
2023-04-06T12:51:11.946Z,99851.91
2023-04-06T12:53:40.115Z,99850.50
2023-04-06T12:56:14.256Z,99842.00
2023-04-06T12:58:43.220Z,99846.59
2023-04-06T13:01:11.767Z,99840.84
2023-04-06T13:03:41.302Z,99839.44
2023-04-06T13:06:10.414Z,99839.63
2023-04-06T13:08:39.273Z,99838.00
2023-04-06T13:11:09.173Z,99832.00
2023-04-06T13:13:37.356Z,99841.16
2023-04-06T13:16:06.807Z,99832.47
2023-04-06T13:18:35.806Z,99834.09
2023-04-06T13:21:05.626Z,99835.16
2023-04-06T13:23:33.795Z,99834.34
2023-04-06T13:26:02.717Z,99826.47
2023-04-06T13:28:30.870Z,99816.13
2023-04-06T13:31:00.510Z,99819.03
2023-04-06T13:33:28.655Z,99817.06
2023-04-06T13:35:56.920Z,99818.91
2023-04-06T13:38:26.358Z,99816.47
2023-04-06T13:40:54.419Z,99813.16
2023-04-06T13:43:22.569Z,99817.94
2023-04-06T13:45:55.187Z,99816.31
2023-04-06T13:48:23.475Z,99811.97
2023-04-06T13:50:51.569Z,99823.81
2023-04-06T13:53:20.703Z,99804.31
2023-04-06T13:55:56.173Z,99811.38
2023-04-06T13:58:24.358Z,99801.06
2023-04-06T14:00:52.576Z,99803.75
2023-04-06T14:03:20.905Z,99803.16
2023-04-06T14:05:48.962Z,99807.13
2023-04-06T14:08:17.058Z,99808.16
2023-04-06T14:10:45.120Z,99810.84
2023-04-06T14:13:14.630Z,99802.97
2023-04-06T14:15:42.544Z,99807.34
2023-04-06T14:18:10.534Z,99807.34
2023-04-06T14:20:38.572Z,99809.44
2023-04-06T14:23:06.562Z,99804.03
2023-04-06T14:25:35.895Z,99808.59
2023-04-06T14:28:04.010Z,99806.50
2023-04-06T14:30:34.018Z,99804.03
2023-04-06T14:33:02.032Z,99803.19
2023-04-06T14:35:31.732Z,99806.50
2023-04-06T14:38:00.143Z,99809.00
2023-04-06T14:40:28.263Z,99804.63
2023-04-06T14:42:57.491Z,99805.66
2023-04-06T14:45:25.568Z,99810.03
2023-04-06T14:47:54.973Z,99801.94
2023-04-06T14:50:23.045Z,99798.22
2023-04-06T14:52:51.080Z,99796.06
2023-04-06T14:55:19.143Z,99796.34
2023-04-06T14:57:47.155Z,99799.75
2023-04-06T15:00:16.210Z,99794.59
2023-04-06T15:02:45.157Z,99795.31
2023-04-06T15:05:15.093Z,99791.91
2023-04-06T15:07:43.128Z,99800.53
2023-04-06T15:10:12.459Z,99808.50
2023-04-06T15:12:40.465Z,99788.56
2023-04-06T15:15:09.280Z,99791.72
2023-04-06T15:17:37.403Z,99799.47
2023-04-06T15:20:06.597Z,99794.19
2023-04-06T15:22:35.978Z,99799.44
2023-04-06T15:25:04.125Z,99799.66
2023-04-06T15:27:32.149Z,99801.75
2023-04-06T15:30:00.734Z,99805.53
2023-04-06T15:32:28.755Z,99801.19
2023-04-06T15:34:58.085Z,99805.38
2023-04-06T15:37:26.092Z,99800.59
2023-04-06T15:39:55.465Z,99801.19
2023-04-06T15:42:23.565Z,99804.09
2023-04-06T15:44:51.758Z,99800.59
2023-04-06T15:47:19.768Z,99797.28
2023-04-06T15:49:48.045Z,99794.81
2023-04-06T15:52:17.365Z,99798.78
2023-04-06T15:54:46.211Z,99797.16
2023-04-06T15:57:15.639Z,99786.78
2023-04-06T15:59:43.649Z,99799.47
2023-04-06T16:02:11.746Z,99789.94
2023-04-06T16:04:39.872Z,99783.94
2023-04-06T16:07:07.826Z,99787.09
2023-04-06T16:09:35.935Z,99786.50
2023-04-06T16:12:04.114Z,99786.72
2023-04-06T16:14:33.574Z,99788.00
2023-04-06T16:17:01.716Z,99785.28
2023-04-06T16:19:29.668Z,99781.22
2023-04-06T16:21:57.845Z,99786.81
2023-04-06T16:24:25.941Z,99785.75
2023-04-06T16:26:53.968Z,99787.63
2023-04-06T16:29:22.247Z,99787.63
2023-04-06T16:31:51.788Z,99784.13
2023-04-06T16:34:19.788Z,99786.81
2023-04-06T16:36:47.861Z,99788.69
2023-04-06T16:39:17.140Z,99788.09
2023-04-06T16:41:45.425Z,99788.09
2023-04-06T16:44:13.442Z,99794.56
2023-04-06T16:46:41.562Z,99787.50
2023-04-06T16:49:11.004Z,99783.97
2023-04-06T16:51:38.985Z,99784.19
2023-04-06T16:54:07.037Z,99782.56
2023-04-06T16:56:35.019Z,99781.94
2023-04-06T16:59:02.963Z,99782.19
2023-04-06T17:01:31.134Z,99781.38
2023-04-06T17:03:59.187Z,99779.97
2023-04-06T17:06:28.923Z,99784.50
2023-04-06T17:08:57.078Z,99785.56
2023-04-06T17:11:29.027Z,99782.06
2023-04-06T17:14:00.815Z,99783.09
2023-04-06T17:16:29.257Z,99781.44
2023-04-06T17:18:57.851Z,99782.50
2023-04-06T17:21:26.381Z,99778.75
2023-04-06T17:23:55.841Z,99780.84
2023-04-06T17:26:23.958Z,99777.13
2023-04-06T17:28:51.878Z,99781.44
2023-04-06T17:31:19.873Z,99783.31
2023-04-06T17:33:48.608Z,99786.03
2023-04-06T17:36:16.700Z,99789.53
2023-04-06T17:38:45.878Z,99793.31
2023-04-06T17:41:16.177Z,99789.53
2023-04-06T17:43:44.339Z,99782.50
2023-04-06T17:46:12.516Z,99784.16
2023-04-06T17:48:40.719Z,99782.50
2023-04-06T17:51:08.628Z,99776.25
2023-04-06T17:53:37.189Z,99780.84
2023-04-06T17:56:05.637Z,99776.50
2023-04-06T17:58:35.490Z,99781.31
2023-04-06T18:01:07.227Z,99777.53
2023-04-06T18:03:35.540Z,99787.50
2023-04-06T18:06:11.601Z,99784.22
2023-04-06T18:08:39.580Z,99786.09
2023-04-06T18:11:07.501Z,99790.91
2023-04-06T18:13:39.291Z,99792.53
2023-04-06T18:16:08.460Z,99802.50
2023-04-06T18:18:38.970Z,99790.91
2023-04-06T18:21:07.359Z,99800.84
2023-04-06T18:23:37.294Z,99800.03
2023-04-06T18:26:05.818Z,99797.34
2023-04-06T18:28:34.222Z,99806.50
2023-04-06T18:31:03.694Z,99800.03
2023-04-06T18:33:32.450Z,99800.84
2023-04-06T18:36:00.500Z,99800.84
2023-04-06T18:38:28.508Z,99798.41
2023-04-06T18:40:56.445Z,99804.59
2023-04-06T18:43:25.270Z,99796.31
2023-04-06T18:45:53.299Z,99805.44
2023-04-06T18:48:22.653Z,99803.78
2023-04-06T18:50:54.090Z,99797.56
2023-04-06T18:53:22.580Z,99802.97
2023-04-06T18:55:51.650Z,99805.44
2023-04-06T18:58:19.628Z,99808.38
2023-04-06T19:00:47.693Z,99803.19
2023-04-06T19:03:15.847Z,99811.28
2023-04-06T19:05:45.450Z,99815.03
2023-04-06T19:08:13.476Z,99814.19
2023-04-06T19:10:41.549Z,99823.53
2023-04-06T19:13:09.892Z,99823.34
2023-04-06T19:15:37.847Z,99829.78
2023-04-06T19:18:06.084Z,99828.94
2023-04-06T19:20:35.111Z,99833.75
2023-04-06T19:23:04.869Z,99846.19
2023-04-06T19:25:32.889Z,99841.59
2023-04-06T19:28:00.937Z,99849.94
2023-04-06T19:30:29.074Z,99850.97
2023-04-06T19:32:57.692Z,99852.84
2023-04-06T19:35:25.757Z,99856.97
2023-04-06T19:37:53.970Z,99862.34
2023-04-06T19:40:23.364Z,99856.97
2023-04-06T19:42:51.243Z,99865.06
2023-04-06T19:45:19.219Z,99866.13
2023-04-06T19:47:47.876Z,99877.47
2023-04-06T19:50:15.956Z,99882.31
2023-04-06T19:52:44.024Z,99882.31
2023-04-06T19:55:12.030Z,99890.38
2023-04-06T19:57:41.341Z,99886.63
2023-04-06T20:00:11.136Z,99888.72
2023-04-06T20:02:39.177Z,99886.25
2023-04-06T20:05:07.847Z,99890.59
2023-04-06T20:07:37.577Z,99895.63
2023-04-06T20:10:07.363Z,99894.34
2023-04-06T20:12:35.829Z,99900.56
2023-04-06T20:15:06.025Z,99900.56
2023-04-06T20:17:34.063Z,99910.53
2023-04-06T20:20:02.121Z,99903.47
2023-04-06T20:22:30.424Z,99908.03
2023-04-06T20:24:58.389Z,99908.03
2023-04-06T20:27:26.528Z,99908.03
2023-04-06T20:29:54.460Z,99915.31
2023-04-06T20:32:24.009Z,99908.03
2023-04-06T20:34:52.677Z,99909.91
2023-04-06T20:37:21.537Z,99909.09
2023-04-06T20:39:49.788Z,99917.19
2023-04-06T20:42:17.987Z,99912.63
2023-04-06T20:44:46.869Z,99912.63
2023-04-06T20:47:14.893Z,99910.75
2023-04-06T20:49:44.837Z,99919.44
2023-04-06T20:52:13.259Z,99913.22
2023-04-06T20:54:41.262Z,99910.53
2023-04-06T20:57:09.281Z,99908.66
2023-04-06T20:59:37.781Z,99913.00
2023-04-06T21:02:05.931Z,99911.34
2023-04-06T21:04:35.471Z,99913.00
2023-04-06T21:07:06.536Z,99904.91
2023-04-06T21:09:36.055Z,99905.13
2023-04-06T21:12:04.095Z,99902.19
2023-04-06T21:14:32.079Z,99902.44
2023-04-06T21:17:00.821Z,99901.38
2023-04-06T21:19:29.849Z,99901.38
2023-04-06T21:21:57.842Z,99902.19
2023-04-06T21:24:27.272Z,99904.91
2023-04-06T21:26:55.195Z,99905.13
2023-04-06T21:29:23.118Z,99907.00
2023-04-06T21:31:51.150Z,99907.00
2023-04-06T21:34:19.581Z,99906.16
2023-04-06T21:36:47.670Z,99904.28
2023-04-06T21:39:15.693Z,99913.44
2023-04-06T21:41:45.088Z,99910.75
2023-04-06T21:44:13.101Z,99906.41
2023-04-06T21:46:41.275Z,99908.88
2023-04-06T21:49:09.169Z,99907.00
2023-04-06T21:51:38.299Z,99914.06
2023-04-06T21:54:07.931Z,99903.47
2023-04-06T21:56:37.309Z,99913.22
2023-04-06T21:59:06.640Z,99915.06
2023-04-06T22:01:35.908Z,99905.13
2023-04-06T22:04:05.238Z,99903.47
2023-04-06T22:06:34.881Z,99900.78
2023-04-06T22:09:05.533Z,99891.88
2023-04-06T22:11:33.412Z,99901.00
2023-04-06T22:14:02.768Z,99895.63
2023-04-06T22:16:32.472Z,99884.00
2023-04-06T22:19:01.850Z,99887.75
2023-04-06T22:21:31.401Z,99881.53
2023-04-06T22:24:01.050Z,99887.97
2023-04-06T22:26:30.214Z,99870.13
2023-04-06T22:28:59.580Z,99878.22
2023-04-06T22:31:31.546Z,99881.75
2023-04-06T22:34:02.010Z,99880.91
2023-04-06T22:36:31.920Z,99882.81
2023-04-06T22:39:01.179Z,99881.97
2023-04-06T22:41:30.360Z,99877.63
2023-04-06T22:43:59.632Z,99869.53
2023-04-06T22:46:29.018Z,99874.91
2023-04-06T22:49:05.044Z,99877.63
2023-04-06T22:51:33.336Z,99874.91
2023-04-06T22:54:02.638Z,99869.53
2023-04-06T22:56:31.855Z,99864.13
2023-04-06T22:59:01.448Z,99863.31
2023-04-06T23:01:30.707Z,99859.59
2023-04-06T23:03:58.913Z,99872.22
2023-04-06T23:06:29.564Z,99862.50
2023-04-06T23:09:00.276Z,99862.28
2023-04-06T23:11:28.332Z,99860.63
2023-04-06T23:13:57.572Z,99866.84
2023-04-06T23:16:26.584Z,99862.50
2023-04-06T23:19:16.136Z,99862.50
2023-04-06T23:21:46.778Z,99870.59
2023-04-06T23:24:16.667Z,99863.56
2023-04-06T23:26:46.496Z,99851.91
2023-04-06T23:29:16.504Z,99855.22
2023-04-06T23:31:45.837Z,99860.00
2023-04-06T23:34:15.238Z,99862.72
2023-04-06T23:36:46.130Z,99852.78
2023-04-06T23:39:15.771Z,99851.09
2023-04-06T23:41:45.200Z,99849.22
2023-04-06T23:44:13.147Z,99858.38
2023-04-06T23:46:42.663Z,99859.19
2023-04-06T23:49:13.071Z,99846.78
2023-04-06T23:51:42.209Z,99856.50
2023-04-06T23:54:11.592Z,99841.38
2023-04-06T23:56:41.717Z,99833.91
2023-04-06T23:59:11.518Z,99836.81
